createdAt,value
2023-03-06T00:00:50.971Z,2.6
2023-03-06T00:20:08.456Z,3
2023-03-06T00:39:26.494Z,3
2023-03-06T00:58:43.333Z,2.9
2023-03-06T01:18:02.005Z,2.8
2023-03-06T01:37:20.623Z,2.7
2023-03-06T01:56:37.478Z,2.8
2023-03-06T02:15:53.546Z,2.5
2023-03-06T02:35:10.751Z,2.5
2023-03-06T02:54:26.870Z,2.5
2023-03-06T03:13:51.361Z,2.6
2023-03-06T03:33:10.388Z,2.2
2023-03-06T03:52:23.479Z,2.3
2023-03-06T04:11:40.368Z,2.3
2023-03-06T04:30:59.048Z,2.2
2023-03-06T04:50:16.925Z,2.2
2023-03-06T05:09:39.231Z,2.5
2023-03-06T05:28:54.616Z,2.5
2023-03-06T05:48:13.017Z,2.5
2023-03-06T06:07:30.877Z,2.6
2023-03-06T06:26:48.907Z,2.6
2023-03-06T06:47:25.854Z,2.6
2023-03-06T07:06:08.186Z,2.8
2023-03-06T07:25:28.399Z,3.5
2023-03-06T07:44:46.082Z,2.9
2023-03-06T08:04:03.100Z,3
2023-03-06T08:23:21.091Z,3
2023-03-06T08:42:40.158Z,3.1
2023-03-06T09:02:01.784Z,2.8
2023-03-06T09:21:17.821Z,2.8
2023-03-06T09:40:35.318Z,3
2023-03-06T09:59:53.669Z,2.9
2023-03-06T10:19:12.762Z,3
2023-03-06T10:38:30.327Z,3.2
2023-03-06T10:57:49.614Z,3
2023-03-06T11:17:06.885Z,3.2
2023-03-06T11:36:27.550Z,3.3
2023-03-06T11:55:45.097Z,3.3
2023-03-06T12:15:04.661Z,3.3
2023-03-06T12:34:23.188Z,3.3
2023-03-06T12:53:41.428Z,3
2023-03-06T13:13:02.811Z,3.3
2023-03-06T13:32:23.976Z,3.3
2023-03-06T13:51:44.434Z,3.9
2023-03-06T14:11:04.346Z,4.3
2023-03-06T14:30:26.862Z,3.9
2023-03-06T14:49:42.041Z,4.1
2023-03-06T15:08:59.847Z,4.1
2023-03-06T15:28:18.132Z,3.8
2023-03-06T15:47:35.549Z,3.7
2023-03-06T16:06:50.427Z,3.7
2023-03-06T16:26:09.926Z,3.8
2023-03-06T16:45:26.867Z,3.4
2023-03-06T17:04:45.773Z,3.3
2023-03-06T17:24:05.151Z,3.4
2023-03-06T17:43:22.451Z,3.2
2023-03-06T18:02:41.857Z,3.3
2023-03-06T18:22:00.772Z,3.2
2023-03-06T18:41:19.428Z,3.1
2023-03-06T19:00:37.500Z,2.9
2023-03-06T19:19:56.219Z,2.8
2023-03-06T19:39:15.061Z,2.7
2023-03-06T19:58:32.543Z,2.6
2023-03-06T20:17:51.196Z,2.7
2023-03-06T20:37:12.644Z,2.6
2023-03-06T20:56:28.355Z,2.7
2023-03-06T21:15:48.031Z,2.7
2023-03-06T21:35:06.265Z,2.4
2023-03-06T21:54:22.412Z,2.1
2023-03-06T22:13:40.534Z,1.8
2023-03-06T22:32:59.858Z,1.9
2023-03-06T22:52:17.961Z,1.8
2023-03-06T23:11:37.646Z,1.9
2023-03-06T23:30:55.389Z,1.8
2023-03-06T23:50:13.744Z,1.8
